sensor_id;sensor_type;location;lat;lon;timestamp;P1;durP1;ratioP1;P2;durP2;ratioP2
66139;SDS011;52945;51.908;8.364;2023-06-24T00:00:34;8.75;;;5.05;;
66139;SDS011;52945;51.908;8.364;2023-06-24T00:03:36;8.85;;;4.70;;
66139;SDS011;52945;51.908;8.364;2023-06-24T00:06:38;6.95;;;4.82;;
66139;SDS011;52945;51.908;8.364;2023-06-24T00:09:39;8.95;;;4.63;;
66139;SDS011;52945;51.908;8.364;2023-06-24T00:12:40;7.85;;;4.93;;
66139;SDS011;52945;51.908;8.364;2023-06-24T00:15:42;10.00;;;5.07;;
66139;SDS011;52945;51.908;8.364;2023-06-24T00:18:42;7.53;;;4.18;;
66139;SDS011;52945;51.908;8.364;2023-06-24T00:21:43;8.48;;;4.55;;
66139;SDS011;52945;51.908;8.364;2023-06-24T00:24:44;8.23;;;4.75;;
66139;SDS011;52945;51.908;8.364;2023-06-24T00:30:46;7.20;;;4.30;;
66139;SDS011;52945;51.908;8.364;2023-06-24T00:33:48;8.23;;;5.03;;
66139;SDS011;52945;51.908;8.364;2023-06-24T00:36:49;8.68;;;4.80;;
66139;SDS011;52945;51.908;8.364;2023-06-24T00:42:50;8.20;;;4.50;;
66139;SDS011;52945;51.908;8.364;2023-06-24T00:45:52;9.60;;;4.78;;
66139;SDS011;52945;51.908;8.364;2023-06-24T00:48:54;8.95;;;5.03;;
66139;SDS011;52945;51.908;8.364;2023-06-24T00:51:55;9.00;;;4.68;;
66139;SDS011;52945;51.908;8.364;2023-06-24T00:57:57;8.80;;;4.43;;
66139;SDS011;52945;51.908;8.364;2023-06-24T01:00:59;9.23;;;4.57;;
66139;SDS011;52945;51.908;8.364;2023-06-24T01:04:01;7.70;;;5.03;;
66139;SDS011;52945;51.908;8.364;2023-06-24T01:07:03;7.93;;;4.68;;
66139;SDS011;52945;51.908;8.364;2023-06-24T01:10:05;8.40;;;4.70;;
66139;SDS011;52945;51.908;8.364;2023-06-24T01:13:07;8.05;;;5.05;;
66139;SDS011;52945;51.908;8.364;2023-06-24T01:19:26;9.90;;;4.82;;
66139;SDS011;52945;51.908;8.364;2023-06-24T01:26:20;8.73;;;4.55;;
66139;SDS011;52945;51.908;8.364;2023-06-24T01:30:07;7.57;;;4.15;;
66139;SDS011;52945;51.908;8.364;2023-06-24T01:33:24;7.13;;;4.20;;
66139;SDS011;52945;51.908;8.364;2023-06-24T01:36:36;8.57;;;4.65;;
66139;SDS011;52945;51.908;8.364;2023-06-24T01:39:42;8.57;;;4.78;;
66139;SDS011;52945;51.908;8.364;2023-06-24T01:42:50;8.85;;;4.90;;
66139;SDS011;52945;51.908;8.364;2023-06-24T01:45:51;9.43;;;5.00;;
66139;SDS011;52945;51.908;8.364;2023-06-24T01:48:55;8.48;;;5.15;;
66139;SDS011;52945;51.908;8.364;2023-06-24T01:51:59;8.77;;;5.30;;
66139;SDS011;52945;51.908;8.364;2023-06-24T01:55:01;10.35;;;4.95;;
66139;SDS011;52945;51.908;8.364;2023-06-24T01:58:04;8.80;;;5.22;;
66139;SDS011;52945;51.908;8.364;2023-06-24T02:01:07;9.20;;;5.22;;
66139;SDS011;52945;51.908;8.364;2023-06-24T02:07:10;8.35;;;4.80;;
66139;SDS011;52945;51.908;8.364;2023-06-24T02:10:13;9.23;;;5.57;;
66139;SDS011;52945;51.908;8.364;2023-06-24T02:13:15;9.30;;;5.50;;
66139;SDS011;52945;51.908;8.364;2023-06-24T02:16:17;10.68;;;5.10;;
66139;SDS011;52945;51.908;8.364;2023-06-24T02:19:20;10.32;;;5.35;;
66139;SDS011;52945;51.908;8.364;2023-06-24T02:25:21;10.45;;;5.05;;
66139;SDS011;52945;51.908;8.364;2023-06-24T02:28:23;8.80;;;5.15;;
66139;SDS011;52945;51.908;8.364;2023-06-24T02:31:25;11.02;;;5.35;;
66139;SDS011;52945;51.908;8.364;2023-06-24T02:37:26;10.10;;;5.25;;
66139;SDS011;52945;51.908;8.364;2023-06-24T02:40:27;9.60;;;5.35;;
66139;SDS011;52945;51.908;8.364;2023-06-24T02:43:28;9.40;;;5.25;;
66139;SDS011;52945;51.908;8.364;2023-06-24T02:46:28;9.38;;;5.30;;
66139;SDS011;52945;51.908;8.364;2023-06-24T02:49:33;9.50;;;5.50;;
66139;SDS011;52945;51.908;8.364;2023-06-24T02:52:35;10.68;;;5.72;;
66139;SDS011;52945;51.908;8.364;2023-06-24T02:55:37;10.88;;;5.47;;
66139;SDS011;52945;51.908;8.364;2023-06-24T02:58:41;9.57;;;5.03;;
66139;SDS011;52945;51.908;8.364;2023-06-24T03:01:42;11.57;;;5.55;;
66139;SDS011;52945;51.908;8.364;2023-06-24T03:04:45;9.43;;;5.70;;
66139;SDS011;52945;51.908;8.364;2023-06-24T03:07:47;9.50;;;5.60;;
66139;SDS011;52945;51.908;8.364;2023-06-24T03:10:48;11.32;;;6.05;;
66139;SDS011;52945;51.908;8.364;2023-06-24T03:16:49;9.63;;;5.30;;
66139;SDS011;52945;51.908;8.364;2023-06-24T03:19:50;9.95;;;5.60;;
66139;SDS011;52945;51.908;8.364;2023-06-24T03:25:52;11.27;;;5.47;;
66139;SDS011;52945;51.908;8.364;2023-06-24T03:31:53;11.38;;;5.53;;
66139;SDS011;52945;51.908;8.364;2023-06-24T03:37:54;10.38;;;5.50;;
66139;SDS011;52945;51.908;8.364;2023-06-24T03:43:55;9.35;;;5.35;;
66139;SDS011;52945;51.908;8.364;2023-06-24T03:46:56;12.52;;;5.82;;
66139;SDS011;52945;51.908;8.364;2023-06-24T03:49:57;9.80;;;5.65;;
66139;SDS011;52945;51.908;8.364;2023-06-24T03:52:57;10.48;;;5.13;;
66139;SDS011;52945;51.908;8.364;2023-06-24T03:55:58;11.60;;;5.20;;
66139;SDS011;52945;51.908;8.364;2023-06-24T03:58:59;13.57;;;5.30;;
66139;SDS011;52945;51.908;8.364;2023-06-24T04:02:00;9.32;;;5.18;;
66139;SDS011;52945;51.908;8.364;2023-06-24T04:08:01;11.57;;;6.20;;
66139;SDS011;52945;51.908;8.364;2023-06-24T04:11:03;10.05;;;5.50;;
66139;SDS011;52945;51.908;8.364;2023-06-24T04:14:04;9.25;;;5.63;;
66139;SDS011;52945;51.908;8.364;2023-06-24T04:17:06;7.78;;;4.93;;
66139;SDS011;52945;51.908;8.364;2023-06-24T04:20:07;9.02;;;5.60;;
66139;SDS011;52945;51.908;8.364;2023-06-24T04:23:10;13.20;;;6.28;;
66139;SDS011;52945;51.908;8.364;2023-06-24T04:26:11;10.00;;;5.78;;
66139;SDS011;52945;51.908;8.364;2023-06-24T04:29:12;9.82;;;5.10;;
66139;SDS011;52945;51.908;8.364;2023-06-24T04:32:12;10.40;;;5.57;;
66139;SDS011;52945;51.908;8.364;2023-06-24T04:35:13;11.50;;;5.20;;
66139;SDS011;52945;51.908;8.364;2023-06-24T04:38:13;9.98;;;5.43;;
66139;SDS011;52945;51.908;8.364;2023-06-24T04:41:18;10.13;;;5.13;;
66139;SDS011;52945;51.908;8.364;2023-06-24T04:44:19;10.57;;;5.90;;
66139;SDS011;52945;51.908;8.364;2023-06-24T04:47:20;10.38;;;5.18;;
66139;SDS011;52945;51.908;8.364;2023-06-24T04:53:21;11.52;;;5.07;;
66139;SDS011;52945;51.908;8.364;2023-06-24T04:59:22;9.55;;;4.97;;
66139;SDS011;52945;51.908;8.364;2023-06-24T05:05:23;9.48;;;5.45;;
66139;SDS011;52945;51.908;8.364;2023-06-24T05:11:24;11.60;;;5.60;;
66139;SDS011;52945;51.908;8.364;2023-06-24T05:14:25;9.10;;;4.97;;
66139;SDS011;52945;51.908;8.364;2023-06-24T05:20:26;9.48;;;5.32;;
66139;SDS011;52945;51.908;8.364;2023-06-24T05:26:27;10.10;;;5.65;;
66139;SDS011;52945;51.908;8.364;2023-06-24T05:29:28;12.13;;;5.82;;
66139;SDS011;52945;51.908;8.364;2023-06-24T05:32:29;9.73;;;4.93;;
66139;SDS011;52945;51.908;8.364;2023-06-24T05:35:29;12.40;;;5.65;;
66139;SDS011;52945;51.908;8.364;2023-06-24T05:38:30;9.35;;;5.20;;
66139;SDS011;52945;51.908;8.364;2023-06-24T05:44:31;11.23;;;6.03;;
66139;SDS011;52945;51.908;8.364;2023-06-24T05:50:32;9.82;;;5.13;;
66139;SDS011;52945;51.908;8.364;2023-06-24T05:56:33;7.93;;;4.95;;
66139;SDS011;52945;51.908;8.364;2023-06-24T06:02:34;9.52;;;5.43;;
66139;SDS011;52945;51.908;8.364;2023-06-24T06:08:35;9.95;;;4.93;;
66139;SDS011;52945;51.908;8.364;2023-06-24T06:14:36;10.18;;;5.03;;
66139;SDS011;52945;51.908;8.364;2023-06-24T06:20:37;11.43;;;5.70;;
66139;SDS011;52945;51.908;8.364;2023-06-24T06:23:38;9.82;;;5.45;;
66139;SDS011;52945;51.908;8.364;2023-06-24T06:29:43;11.00;;;5.70;;
66139;SDS011;52945;51.908;8.364;2023-06-24T06:35:44;9.93;;;5.47;;
66139;SDS011;52945;51.908;8.364;2023-06-24T06:41:45;9.63;;;5.20;;
66139;SDS011;52945;51.908;8.364;2023-06-24T06:47:46;8.77;;;4.97;;
66139;SDS011;52945;51.908;8.364;2023-06-24T06:53:47;12.13;;;5.35;;
66139;SDS011;52945;51.908;8.364;2023-06-24T06:59:48;10.52;;;5.15;;
66139;SDS011;52945;51.908;8.364;2023-06-24T07:02:50;11.88;;;5.60;;
66139;SDS011;52945;51.908;8.364;2023-06-24T07:08:52;9.00;;;4.88;;
66139;SDS011;52945;51.908;8.364;2023-06-24T07:11:52;10.23;;;4.95;;
66139;SDS011;52945;51.908;8.364;2023-06-24T07:17:53;9.52;;;4.85;;
66139;SDS011;52945;51.908;8.364;2023-06-24T07:20:54;8.23;;;4.65;;
66139;SDS011;52945;51.908;8.364;2023-06-24T07:23:54;9.77;;;5.00;;
66139;SDS011;52945;51.908;8.364;2023-06-24T07:26:55;12.93;;;5.30;;
66139;SDS011;52945;51.908;8.364;2023-06-24T07:29:55;7.95;;;4.38;;
66139;SDS011;52945;51.908;8.364;2023-06-24T07:32:56;9.70;;;5.10;;
66139;SDS011;52945;51.908;8.364;2023-06-24T07:35:57;8.65;;;4.57;;
66139;SDS011;52945;51.908;8.364;2023-06-24T07:38:57;8.18;;;4.68;;
66139;SDS011;52945;51.908;8.364;2023-06-24T07:41:58;9.32;;;4.85;;
66139;SDS011;52945;51.908;8.364;2023-06-24T07:44:59;7.13;;;4.20;;
66139;SDS011;52945;51.908;8.364;2023-06-24T07:47:59;6.70;;;4.38;;
66139;SDS011;52945;51.908;8.364;2023-06-24T07:51:00;9.68;;;4.70;;
66139;SDS011;52945;51.908;8.364;2023-06-24T07:54:01;9.07;;;4.88;;
66139;SDS011;52945;51.908;8.364;2023-06-24T07:57:01;9.52;;;4.53;;
66139;SDS011;52945;51.908;8.364;2023-06-24T08:00:02;7.45;;;4.32;;
66139;SDS011;52945;51.908;8.364;2023-06-24T08:03:04;8.15;;;4.50;;
66139;SDS011;52945;51.908;8.364;2023-06-24T08:06:05;9.70;;;4.88;;
66139;SDS011;52945;51.908;8.364;2023-06-24T08:09:05;8.85;;;4.13;;
66139;SDS011;52945;51.908;8.364;2023-06-24T08:12:06;8.35;;;4.13;;
66139;SDS011;52945;51.908;8.364;2023-06-24T08:15:07;6.32;;;3.85;;
66139;SDS011;52945;51.908;8.364;2023-06-24T08:18:08;7.22;;;4.00;;
66139;SDS011;52945;51.908;8.364;2023-06-24T08:21:09;6.80;;;4.25;;
66139;SDS011;52945;51.908;8.364;2023-06-24T08:24:09;6.45;;;4.15;;
66139;SDS011;52945;51.908;8.364;2023-06-24T08:27:10;9.20;;;4.57;;
66139;SDS011;52945;51.908;8.364;2023-06-24T08:30:19;7.60;;;3.70;;
66139;SDS011;52945;51.908;8.364;2023-06-24T08:33:20;7.30;;;4.18;;
66139;SDS011;52945;51.908;8.364;2023-06-24T08:36:25;6.22;;;3.72;;
66139;SDS011;52945;51.908;8.364;2023-06-24T08:39:27;7.28;;;4.30;;
66139;SDS011;52945;51.908;8.364;2023-06-24T08:42:28;7.60;;;4.55;;
66139;SDS011;52945;51.908;8.364;2023-06-24T08:45:28;8.57;;;4.10;;
66139;SDS011;52945;51.908;8.364;2023-06-24T08:48:30;8.32;;;3.92;;
66139;SDS011;52945;51.908;8.364;2023-06-24T08:51:31;6.63;;;3.47;;
66139;SDS011;52945;51.908;8.364;2023-06-24T08:54:40;7.00;;;4.28;;
66139;SDS011;52945;51.908;8.364;2023-06-24T08:57:41;8.13;;;4.38;;
66139;SDS011;52945;51.908;8.364;2023-06-24T09:00:42;6.15;;;3.80;;
66139;SDS011;52945;51.908;8.364;2023-06-24T09:03:43;8.13;;;4.00;;
66139;SDS011;52945;51.908;8.364;2023-06-24T09:06:44;7.35;;;4.10;;
66139;SDS011;52945;51.908;8.364;2023-06-24T09:09:45;7.00;;;4.10;;
66139;SDS011;52945;51.908;8.364;2023-06-24T09:12:45;7.88;;;3.80;;
66139;SDS011;52945;51.908;8.364;2023-06-24T09:15:51;8.13;;;4.47;;
66139;SDS011;52945;51.908;8.364;2023-06-24T09:18:52;9.05;;;4.15;;
66139;SDS011;52945;51.908;8.364;2023-06-24T09:21:53;7.45;;;4.20;;
66139;SDS011;52945;51.908;8.364;2023-06-24T09:24:54;6.10;;;3.20;;
66139;SDS011;52945;51.908;8.364;2023-06-24T09:27:54;6.07;;;3.65;;
66139;SDS011;52945;51.908;8.364;2023-06-24T09:31:07;5.38;;;3.28;;
66139;SDS011;52945;51.908;8.364;2023-06-24T09:34:12;5.78;;;3.33;;
66139;SDS011;52945;51.908;8.364;2023-06-24T09:37:20;5.32;;;3.40;;
66139;SDS011;52945;51.908;8.364;2023-06-24T09:40:23;6.53;;;3.88;;
66139;SDS011;52945;51.908;8.364;2023-06-24T09:43:24;9.25;;;4.22;;
66139;SDS011;52945;51.908;8.364;2023-06-24T09:46:24;6.10;;;3.30;;
66139;SDS011;52945;51.908;8.364;2023-06-24T09:49:25;9.30;;;3.85;;
66139;SDS011;52945;51.908;8.364;2023-06-24T09:52:25;5.88;;;3.70;;
66139;SDS011;52945;51.908;8.364;2023-06-24T09:55:27;6.25;;;3.80;;
66139;SDS011;52945;51.908;8.364;2023-06-24T09:58:28;7.78;;;3.83;;
66139;SDS011;52945;51.908;8.364;2023-06-24T10:01:32;7.85;;;4.22;;
66139;SDS011;52945;51.908;8.364;2023-06-24T10:04:35;5.03;;;3.53;;
66139;SDS011;52945;51.908;8.364;2023-06-24T10:07:36;6.68;;;4.13;;
66139;SDS011;52945;51.908;8.364;2023-06-24T10:10:38;7.32;;;4.25;;
66139;SDS011;52945;51.908;8.364;2023-06-24T10:13:39;6.03;;;3.42;;
66139;SDS011;52945;51.908;8.364;2023-06-24T10:16:40;6.70;;;3.45;;
66139;SDS011;52945;51.908;8.364;2023-06-24T10:19:42;7.53;;;3.53;;
66139;SDS011;52945;51.908;8.364;2023-06-24T10:22:45;4.53;;;3.08;;
66139;SDS011;52945;51.908;8.364;2023-06-24T10:25:47;5.35;;;3.38;;
66139;SDS011;52945;51.908;8.364;2023-06-24T10:32:07;5.90;;;3.53;;
66139;SDS011;52945;51.908;8.364;2023-06-24T10:35:20;5.40;;;3.40;;
66139;SDS011;52945;51.908;8.364;2023-06-24T10:38:24;6.30;;;3.85;;
66139;SDS011;52945;51.908;8.364;2023-06-24T10:41:25;6.82;;;3.47;;
66139;SDS011;52945;51.908;8.364;2023-06-24T10:44:25;7.47;;;3.88;;
66139;SDS011;52945;51.908;8.364;2023-06-24T10:47:26;6.13;;;3.60;;
66139;SDS011;52945;51.908;8.364;2023-06-24T10:50:28;4.90;;;3.13;;
66139;SDS011;52945;51.908;8.364;2023-06-24T10:53:28;5.97;;;3.58;;
66139;SDS011;52945;51.908;8.364;2023-06-24T10:56:30;5.28;;;3.28;;
66139;SDS011;52945;51.908;8.364;2023-06-24T10:59:34;5.10;;;3.38;;
66139;SDS011;52945;51.908;8.364;2023-06-24T11:02:35;8.13;;;3.60;;
66139;SDS011;52945;51.908;8.364;2023-06-24T11:05:38;6.13;;;3.13;;
66139;SDS011;52945;51.908;8.364;2023-06-24T11:08:43;5.18;;;3.28;;
66139;SDS011;52945;51.908;8.364;2023-06-24T11:11:44;4.13;;;3.00;;
66139;SDS011;52945;51.908;8.364;2023-06-24T11:14:45;4.13;;;2.90;;
66139;SDS011;52945;51.908;8.364;2023-06-24T11:17:46;6.47;;;3.45;;
66139;SDS011;52945;51.908;8.364;2023-06-24T11:20:53;5.95;;;3.25;;
66139;SDS011;52945;51.908;8.364;2023-06-24T11:23:53;5.95;;;3.00;;
66139;SDS011;52945;51.908;8.364;2023-06-24T11:26:54;4.80;;;3.35;;
66139;SDS011;52945;51.908;8.364;2023-06-24T11:29:56;5.03;;;3.15;;
66139;SDS011;52945;51.908;8.364;2023-06-24T11:32:59;4.40;;;3.10;;
66139;SDS011;52945;51.908;8.364;2023-06-24T11:36:00;4.82;;;3.25;;
66139;SDS011;52945;51.908;8.364;2023-06-24T11:39:01;4.82;;;3.30;;
66139;SDS011;52945;51.908;8.364;2023-06-24T11:42:01;4.70;;;3.13;;
66139;SDS011;52945;51.908;8.364;2023-06-24T11:45:02;5.40;;;3.10;;
66139;SDS011;52945;51.908;8.364;2023-06-24T11:48:04;4.50;;;3.20;;
66139;SDS011;52945;51.908;8.364;2023-06-24T11:51:11;4.43;;;3.13;;
66139;SDS011;52945;51.908;8.364;2023-06-24T11:54:13;4.18;;;3.00;;
66139;SDS011;52945;51.908;8.364;2023-06-24T11:57:14;6.60;;;3.80;;
66139;SDS011;52945;51.908;8.364;2023-06-24T12:00:15;5.40;;;3.67;;
66139;SDS011;52945;51.908;8.364;2023-06-24T12:03:16;5.32;;;3.40;;
66139;SDS011;52945;51.908;8.364;2023-06-24T12:06:16;5.43;;;3.75;;
66139;SDS011;52945;51.908;8.364;2023-06-24T12:09:17;5.80;;;3.65;;
66139;SDS011;52945;51.908;8.364;2023-06-24T12:12:17;3.75;;;3.30;;
66139;SDS011;52945;51.908;8.364;2023-06-24T12:15:18;5.63;;;3.60;;
66139;SDS011;52945;51.908;8.364;2023-06-24T12:18:19;5.28;;;3.83;;
66139;SDS011;52945;51.908;8.364;2023-06-24T12:21:20;4.68;;;3.70;;
66139;SDS011;52945;51.908;8.364;2023-06-24T12:24:20;4.72;;;3.80;;
66139;SDS011;52945;51.908;8.364;2023-06-24T12:27:21;5.20;;;3.20;;
66139;SDS011;52945;51.908;8.364;2023-06-24T12:30:21;4.68;;;3.20;;
66139;SDS011;52945;51.908;8.364;2023-06-24T12:33:22;5.07;;;3.45;;
66139;SDS011;52945;51.908;8.364;2023-06-24T12:36:23;3.95;;;3.30;;
66139;SDS011;52945;51.908;8.364;2023-06-24T12:39:24;7.82;;;3.90;;
66139;SDS011;52945;51.908;8.364;2023-06-24T12:42:24;4.10;;;3.42;;
66139;SDS011;52945;51.908;8.364;2023-06-24T12:45:25;4.75;;;3.47;;
66139;SDS011;52945;51.908;8.364;2023-06-24T12:48:26;5.43;;;3.33;;
66139;SDS011;52945;51.908;8.364;2023-06-24T12:51:26;4.97;;;3.70;;
66139;SDS011;52945;51.908;8.364;2023-06-24T12:54:27;4.60;;;3.50;;
66139;SDS011;52945;51.908;8.364;2023-06-24T12:57:28;4.68;;;3.30;;
66139;SDS011;52945;51.908;8.364;2023-06-24T13:00:28;5.30;;;3.88;;
66139;SDS011;52945;51.908;8.364;2023-06-24T13:03:29;5.13;;;3.42;;
66139;SDS011;52945;51.908;8.364;2023-06-24T13:06:29;4.93;;;3.10;;
66139;SDS011;52945;51.908;8.364;2023-06-24T13:09:30;5.30;;;3.80;;
66139;SDS011;52945;51.908;8.364;2023-06-24T13:12:30;5.90;;;3.75;;
66139;SDS011;52945;51.908;8.364;2023-06-24T13:15:31;5.55;;;3.90;;
66139;SDS011;52945;51.908;8.364;2023-06-24T13:18:32;5.10;;;3.83;;
66139;SDS011;52945;51.908;8.364;2023-06-24T13:21:32;4.82;;;3.42;;
66139;SDS011;52945;51.908;8.364;2023-06-24T13:24:33;4.88;;;3.72;;
66139;SDS011;52945;51.908;8.364;2023-06-24T13:27:33;6.53;;;3.80;;
66139;SDS011;52945;51.908;8.364;2023-06-24T13:30:34;6.38;;;4.10;;
66139;SDS011;52945;51.908;8.364;2023-06-24T13:33:35;5.53;;;3.90;;
66139;SDS011;52945;51.908;8.364;2023-06-24T13:36:36;5.75;;;3.95;;
66139;SDS011;52945;51.908;8.364;2023-06-24T13:39:37;6.05;;;4.03;;
66139;SDS011;52945;51.908;8.364;2023-06-24T13:42:38;6.40;;;3.63;;
66139;SDS011;52945;51.908;8.364;2023-06-24T13:45:39;5.05;;;3.90;;
66139;SDS011;52945;51.908;8.364;2023-06-24T13:48:39;5.28;;;3.55;;
66139;SDS011;52945;51.908;8.364;2023-06-24T13:51:41;5.40;;;3.33;;
66139;SDS011;52945;51.908;8.364;2023-06-24T13:54:42;5.45;;;3.17;;
66139;SDS011;52945;51.908;8.364;2023-06-24T13:57:43;6.22;;;3.70;;
66139;SDS011;52945;51.908;8.364;2023-06-24T14:00:44;6.63;;;3.75;;
66139;SDS011;52945;51.908;8.364;2023-06-24T14:03:45;4.95;;;3.72;;
66139;SDS011;52945;51.908;8.364;2023-06-24T14:06:46;5.03;;;3.45;;
66139;SDS011;52945;51.908;8.364;2023-06-24T14:09:46;7.05;;;3.80;;
66139;SDS011;52945;51.908;8.364;2023-06-24T14:12:47;6.10;;;3.83;;
66139;SDS011;52945;51.908;8.364;2023-06-24T14:15:48;5.60;;;3.90;;
66139;SDS011;52945;51.908;8.364;2023-06-24T14:18:48;5.32;;;3.85;;
66139;SDS011;52945;51.908;8.364;2023-06-24T14:21:49;6.85;;;3.83;;
66139;SDS011;52945;51.908;8.364;2023-06-24T14:24:50;6.97;;;4.00;;
66139;SDS011;52945;51.908;8.364;2023-06-24T14:27:50;4.82;;;3.80;;
66139;SDS011;52945;51.908;8.364;2023-06-24T14:30:51;5.28;;;3.80;;
66139;SDS011;52945;51.908;8.364;2023-06-24T14:33:52;7.38;;;4.40;;
66139;SDS011;52945;51.908;8.364;2023-06-24T14:36:52;6.72;;;4.05;;
66139;SDS011;52945;51.908;8.364;2023-06-24T14:39:53;5.72;;;4.05;;
66139;SDS011;52945;51.908;8.364;2023-06-24T14:42:54;6.40;;;4.15;;
66139;SDS011;52945;51.908;8.364;2023-06-24T14:45:54;6.75;;;4.75;;
66139;SDS011;52945;51.908;8.364;2023-06-24T14:48:57;6.20;;;4.28;;
66139;SDS011;52945;51.908;8.364;2023-06-24T14:51:58;6.05;;;4.38;;
66139;SDS011;52945;51.908;8.364;2023-06-24T14:54:58;7.82;;;4.60;;
66139;SDS011;52945;51.908;8.364;2023-06-24T14:57:59;6.75;;;4.63;;
66139;SDS011;52945;51.908;8.364;2023-06-24T15:01:00;6.55;;;4.40;;
66139;SDS011;52945;51.908;8.364;2023-06-24T15:04:00;7.30;;;4.38;;
66139;SDS011;52945;51.908;8.364;2023-06-24T15:07:01;6.35;;;4.30;;
66139;SDS011;52945;51.908;8.364;2023-06-24T15:10:02;7.18;;;4.47;;
66139;SDS011;52945;51.908;8.364;2023-06-24T15:13:02;6.65;;;4.70;;
66139;SDS011;52945;51.908;8.364;2023-06-24T15:16:03;5.93;;;4.60;;
66139;SDS011;52945;51.908;8.364;2023-06-24T15:19:04;5.85;;;4.22;;
66139;SDS011;52945;51.908;8.364;2023-06-24T15:22:04;6.78;;;4.10;;
66139;SDS011;52945;51.908;8.364;2023-06-24T15:25:05;6.13;;;4.28;;
66139;SDS011;52945;51.908;8.364;2023-06-24T15:28:06;6.18;;;3.88;;
66139;SDS011;52945;51.908;8.364;2023-06-24T15:31:07;7.95;;;4.55;;
66139;SDS011;52945;51.908;8.364;2023-06-24T15:34:07;8.07;;;4.28;;
66139;SDS011;52945;51.908;8.364;2023-06-24T15:37:10;5.95;;;4.07;;
66139;SDS011;52945;51.908;8.364;2023-06-24T15:40:11;5.95;;;3.83;;
66139;SDS011;52945;51.908;8.364;2023-06-24T15:43:11;5.60;;;3.50;;
66139;SDS011;52945;51.908;8.364;2023-06-24T15:46:13;4.40;;;3.50;;
66139;SDS011;52945;51.908;8.364;2023-06-24T15:49:14;4.97;;;3.60;;
66139;SDS011;52945;51.908;8.364;2023-06-24T15:52:15;7.57;;;3.88;;
66139;SDS011;52945;51.908;8.364;2023-06-24T15:55:15;6.85;;;4.05;;
66139;SDS011;52945;51.908;8.364;2023-06-24T15:58:16;6.18;;;3.80;;
66139;SDS011;52945;51.908;8.364;2023-06-24T16:01:17;4.90;;;3.80;;
66139;SDS011;52945;51.908;8.364;2023-06-24T16:04:17;7.47;;;4.05;;
66139;SDS011;52945;51.908;8.364;2023-06-24T16:07:18;6.47;;;3.60;;
66139;SDS011;52945;51.908;8.364;2023-06-24T16:10:18;6.63;;;4.15;;
66139;SDS011;52945;51.908;8.364;2023-06-24T16:13:19;4.68;;;3.58;;
66139;SDS011;52945;51.908;8.364;2023-06-24T16:16:19;4.35;;;3.15;;
66139;SDS011;52945;51.908;8.364;2023-06-24T16:19:20;4.70;;;3.30;;
66139;SDS011;52945;51.908;8.364;2023-06-24T16:22:21;4.93;;;3.47;;
66139;SDS011;52945;51.908;8.364;2023-06-24T16:25:21;6.45;;;3.60;;
66139;SDS011;52945;51.908;8.364;2023-06-24T16:28:22;4.68;;;3.50;;
66139;SDS011;52945;51.908;8.364;2023-06-24T16:31:23;5.00;;;3.63;;
66139;SDS011;52945;51.908;8.364;2023-06-24T16:34:23;4.88;;;3.42;;
66139;SDS011;52945;51.908;8.364;2023-06-24T16:37:24;4.85;;;3.40;;
66139;SDS011;52945;51.908;8.364;2023-06-24T16:40:25;6.93;;;3.95;;
66139;SDS011;52945;51.908;8.364;2023-06-24T16:43:25;4.90;;;3.50;;
66139;SDS011;52945;51.908;8.364;2023-06-24T16:46:26;4.68;;;3.10;;
66139;SDS011;52945;51.908;8.364;2023-06-24T16:49:27;4.47;;;3.17;;
66139;SDS011;52945;51.908;8.364;2023-06-24T16:52:28;4.60;;;3.30;;
66139;SDS011;52945;51.908;8.364;2023-06-24T16:55:32;5.68;;;3.35;;
66139;SDS011;52945;51.908;8.364;2023-06-24T16:58:33;4.75;;;3.30;;
66139;SDS011;52945;51.908;8.364;2023-06-24T17:01:33;4.60;;;3.00;;
66139;SDS011;52945;51.908;8.364;2023-06-24T17:04:34;6.45;;;3.42;;
66139;SDS011;52945;51.908;8.364;2023-06-24T17:07:35;4.45;;;3.35;;
66139;SDS011;52945;51.908;8.364;2023-06-24T17:10:35;3.60;;;3.00;;
66139;SDS011;52945;51.908;8.364;2023-06-24T17:13:36;4.55;;;3.10;;
66139;SDS011;52945;51.908;8.364;2023-06-24T17:16:36;5.80;;;3.72;;
66139;SDS011;52945;51.908;8.364;2023-06-24T17:19:37;6.03;;;3.47;;
66139;SDS011;52945;51.908;8.364;2023-06-24T17:22:38;4.43;;;3.08;;
66139;SDS011;52945;51.908;8.364;2023-06-24T17:25:38;4.00;;;2.80;;
66139;SDS011;52945;51.908;8.364;2023-06-24T17:28:39;5.10;;;3.40;;
66139;SDS011;52945;51.908;8.364;2023-06-24T17:31:42;4.93;;;3.20;;
66139;SDS011;52945;51.908;8.364;2023-06-24T17:34:42;5.13;;;3.20;;
66139;SDS011;52945;51.908;8.364;2023-06-24T17:37:43;4.43;;;3.55;;
66139;SDS011;52945;51.908;8.364;2023-06-24T17:40:43;5.20;;;3.50;;
66139;SDS011;52945;51.908;8.364;2023-06-24T17:43:44;5.60;;;3.33;;
66139;SDS011;52945;51.908;8.364;2023-06-24T17:46:44;5.55;;;3.85;;
66139;SDS011;52945;51.908;8.364;2023-06-24T17:49:45;5.57;;;4.20;;
66139;SDS011;52945;51.908;8.364;2023-06-24T17:52:46;4.30;;;3.33;;
66139;SDS011;52945;51.908;8.364;2023-06-24T17:55:46;4.18;;;2.90;;
66139;SDS011;52945;51.908;8.364;2023-06-24T17:58:47;5.05;;;3.20;;
66139;SDS011;52945;51.908;8.364;2023-06-24T18:01:47;5.68;;;3.40;;
66139;SDS011;52945;51.908;8.364;2023-06-24T18:04:48;5.15;;;3.63;;
66139;SDS011;52945;51.908;8.364;2023-06-24T18:07:49;6.22;;;3.33;;
66139;SDS011;52945;51.908;8.364;2023-06-24T18:10:49;6.25;;;3.50;;
66139;SDS011;52945;51.908;8.364;2023-06-24T18:13:50;5.22;;;3.45;;
66139;SDS011;52945;51.908;8.364;2023-06-24T18:16:51;5.30;;;3.30;;
66139;SDS011;52945;51.908;8.364;2023-06-24T18:19:52;6.28;;;4.20;;
66139;SDS011;52945;51.908;8.364;2023-06-24T18:22:52;5.68;;;3.40;;
66139;SDS011;52945;51.908;8.364;2023-06-24T18:25:53;4.47;;;3.03;;
66139;SDS011;52945;51.908;8.364;2023-06-24T18:28:54;3.97;;;3.13;;
66139;SDS011;52945;51.908;8.364;2023-06-24T18:31:54;5.57;;;2.90;;
66139;SDS011;52945;51.908;8.364;2023-06-24T18:34:55;4.07;;;2.90;;
66139;SDS011;52945;51.908;8.364;2023-06-24T18:37:56;5.82;;;3.42;;
66139;SDS011;52945;51.908;8.364;2023-06-24T18:40:58;4.43;;;3.08;;
66139;SDS011;52945;51.908;8.364;2023-06-24T18:43:58;4.85;;;3.50;;
66139;SDS011;52945;51.908;8.364;2023-06-24T18:47:00;5.35;;;3.30;;
66139;SDS011;52945;51.908;8.364;2023-06-24T18:50:01;4.28;;;3.15;;
66139;SDS011;52945;51.908;8.364;2023-06-24T18:53:02;5.43;;;3.53;;
66139;SDS011;52945;51.908;8.364;2023-06-24T18:56:02;4.85;;;3.10;;
66139;SDS011;52945;51.908;8.364;2023-06-24T18:59:04;3.80;;;2.90;;
66139;SDS011;52945;51.908;8.364;2023-06-24T19:02:05;5.30;;;3.15;;
66139;SDS011;52945;51.908;8.364;2023-06-24T19:05:06;4.97;;;3.15;;
66139;SDS011;52945;51.908;8.364;2023-06-24T19:08:06;4.55;;;3.08;;
66139;SDS011;52945;51.908;8.364;2023-06-24T19:11:07;5.10;;;3.10;;
66139;SDS011;52945;51.908;8.364;2023-06-24T19:14:08;5.40;;;3.40;;
66139;SDS011;52945;51.908;8.364;2023-06-24T19:17:08;5.20;;;3.30;;
66139;SDS011;52945;51.908;8.364;2023-06-24T19:20:09;5.97;;;3.60;;
66139;SDS011;52945;51.908;8.364;2023-06-24T19:23:10;7.63;;;3.70;;
66139;SDS011;52945;51.908;8.364;2023-06-24T19:26:11;7.38;;;4.10;;
66139;SDS011;52945;51.908;8.364;2023-06-24T19:29:12;7.90;;;4.40;;
66139;SDS011;52945;51.908;8.364;2023-06-24T19:32:12;9.45;;;5.90;;
66139;SDS011;52945;51.908;8.364;2023-06-24T19:35:13;7.07;;;3.75;;
66139;SDS011;52945;51.908;8.364;2023-06-24T19:38:14;6.25;;;3.75;;
66139;SDS011;52945;51.908;8.364;2023-06-24T19:41:14;5.82;;;3.60;;
66139;SDS011;52945;51.908;8.364;2023-06-24T19:44:15;5.22;;;3.60;;
66139;SDS011;52945;51.908;8.364;2023-06-24T19:47:15;6.10;;;3.30;;
66139;SDS011;52945;51.908;8.364;2023-06-24T19:50:19;6.97;;;4.03;;
66139;SDS011;52945;51.908;8.364;2023-06-24T19:53:20;5.82;;;4.10;;
66139;SDS011;52945;51.908;8.364;2023-06-24T19:56:20;5.07;;;3.78;;
66139;SDS011;52945;51.908;8.364;2023-06-24T19:59:21;6.40;;;3.80;;